sensor_id;sensor_type;location;lat;lon;timestamp;temperature;humidity
7606;DHT22;3844;53.360;9.738;2023-02-13T00:01:40;6.50;89.60
7606;DHT22;3844;53.360;9.738;2023-02-13T00:03:41;6.50;89.50
7606;DHT22;3844;53.360;9.738;2023-02-13T00:07:43;6.50;89.60
7606;DHT22;3844;53.360;9.738;2023-02-13T00:11:44;6.40;89.60
7606;DHT22;3844;53.360;9.738;2023-02-13T00:13:46;6.40;89.60
7606;DHT22;3844;53.360;9.738;2023-02-13T00:15:58;6.40;89.50
7606;DHT22;3844;53.360;9.738;2023-02-13T00:17:58;6.40;89.50
7606;DHT22;3844;53.360;9.738;2023-02-13T00:19:59;6.40;89.60
7606;DHT22;3844;53.360;9.738;2023-02-13T00:22:00;6.40;89.60
7606;DHT22;3844;53.360;9.738;2023-02-13T00:24:01;6.40;89.60
7606;DHT22;3844;53.360;9.738;2023-02-13T00:26:06;6.40;89.50
7606;DHT22;3844;53.360;9.738;2023-02-13T00:28:06;6.40;89.50
7606;DHT22;3844;53.360;9.738;2023-02-13T00:30:08;6.40;89.50
7606;DHT22;3844;53.360;9.738;2023-02-13T00:32:08;6.40;89.40
7606;DHT22;3844;53.360;9.738;2023-02-13T00:34:09;6.40;89.50
7606;DHT22;3844;53.360;9.738;2023-02-13T00:36:20;6.30;89.50
7606;DHT22;3844;53.360;9.738;2023-02-13T00:38:21;6.30;89.60
7606;DHT22;3844;53.360;9.738;2023-02-13T00:40:21;6.30;89.50
7606;DHT22;3844;53.360;9.738;2023-02-13T00:42:22;6.30;89.40
7606;DHT22;3844;53.360;9.738;2023-02-13T00:44:25;6.30;89.60
7606;DHT22;3844;53.360;9.738;2023-02-13T00:46:26;6.30;89.60
7606;DHT22;3844;53.360;9.738;2023-02-13T00:48:28;6.30;89.60
7606;DHT22;3844;53.360;9.738;2023-02-13T00:50:29;6.30;89.50
7606;DHT22;3844;53.360;9.738;2023-02-13T00:52:30;6.30;89.40
7606;DHT22;3844;53.360;9.738;2023-02-13T00:54:31;6.30;89.40
7606;DHT22;3844;53.360;9.738;2023-02-13T00:56:32;6.30;89.40
7606;DHT22;3844;53.360;9.738;2023-02-13T00:58:33;6.30;89.50
7606;DHT22;3844;53.360;9.738;2023-02-13T01:00:33;6.30;89.50
7606;DHT22;3844;53.360;9.738;2023-02-13T01:02:34;6.30;89.40
7606;DHT22;3844;53.360;9.738;2023-02-13T01:04:35;6.30;89.40
7606;DHT22;3844;53.360;9.738;2023-02-13T01:06:36;6.30;89.40
7606;DHT22;3844;53.360;9.738;2023-02-13T01:08:40;6.30;89.40
7606;DHT22;3844;53.360;9.738;2023-02-13T01:10:41;6.30;89.40
7606;DHT22;3844;53.360;9.738;2023-02-13T01:12:42;6.30;89.50
7606;DHT22;3844;53.360;9.738;2023-02-13T01:14:43;6.20;89.50
7606;DHT22;3844;53.360;9.738;2023-02-13T01:16:44;6.20;89.50
7606;DHT22;3844;53.360;9.738;2023-02-13T01:18:44;6.20;89.40
7606;DHT22;3844;53.360;9.738;2023-02-13T01:20:58;6.20;89.30
7606;DHT22;3844;53.360;9.738;2023-02-13T01:22:59;6.20;89.30
7606;DHT22;3844;53.360;9.738;2023-02-13T01:27:01;6.20;89.30
7606;DHT22;3844;53.360;9.738;2023-02-13T01:29:01;6.20;89.30
7606;DHT22;3844;53.360;9.738;2023-02-13T01:31:02;6.20;89.30
7606;DHT22;3844;53.360;9.738;2023-02-13T01:33:03;6.20;89.40
7606;DHT22;3844;53.360;9.738;2023-02-13T01:35:04;6.20;89.40
7606;DHT22;3844;53.360;9.738;2023-02-13T01:37:04;6.20;89.40
7606;DHT22;3844;53.360;9.738;2023-02-13T01:39:05;6.20;89.30
7606;DHT22;3844;53.360;9.738;2023-02-13T01:41:06;6.20;89.30
7606;DHT22;3844;53.360;9.738;2023-02-13T01:43:09;6.20;89.20
7606;DHT22;3844;53.360;9.738;2023-02-13T01:45:24;6.20;89.30
7606;DHT22;3844;53.360;9.738;2023-02-13T01:47:32;6.20;89.20
7606;DHT22;3844;53.360;9.738;2023-02-13T01:49:38;6.20;89.20
7606;DHT22;3844;53.360;9.738;2023-02-13T01:51:40;6.10;89.20
7606;DHT22;3844;53.360;9.738;2023-02-13T01:53:49;6.20;89.10
7606;DHT22;3844;53.360;9.738;2023-02-13T01:55:57;6.20;89.20
7606;DHT22;3844;53.360;9.738;2023-02-13T01:58:10;6.10;89.20
7606;DHT22;3844;53.360;9.738;2023-02-13T02:00:13;6.10;89.20
7606;DHT22;3844;53.360;9.738;2023-02-13T02:02:15;6.10;89.30
7606;DHT22;3844;53.360;9.738;2023-02-13T02:04:23;6.10;89.20
7606;DHT22;3844;53.360;9.738;2023-02-13T02:06:28;6.10;89.30
7606;DHT22;3844;53.360;9.738;2023-02-13T02:08:30;6.10;89.30
7606;DHT22;3844;53.360;9.738;2023-02-13T02:10:31;6.10;89.40
7606;DHT22;3844;53.360;9.738;2023-02-13T02:12:35;6.10;89.30
7606;DHT22;3844;53.360;9.738;2023-02-13T02:14:37;6.00;89.20
7606;DHT22;3844;53.360;9.738;2023-02-13T02:16:39;6.10;89.20
7606;DHT22;3844;53.360;9.738;2023-02-13T02:18:39;6.00;89.20
7606;DHT22;3844;53.360;9.738;2023-02-13T02:28:03;6.00;89.10
7606;DHT22;3844;53.360;9.738;2023-02-13T02:39:19;6.00;89.20
7606;DHT22;3844;53.360;9.738;2023-02-13T02:41:36;6.00;89.20
7606;DHT22;3844;53.360;9.738;2023-02-13T02:48:33;5.90;89.10
7606;DHT22;3844;53.360;9.738;2023-02-13T02:51:04;6.00;89.10
7606;DHT22;3844;53.360;9.738;2023-02-13T02:55:53;5.90;89.10
7606;DHT22;3844;53.360;9.738;2023-02-13T02:58:02;5.90;89.10
7606;DHT22;3844;53.360;9.738;2023-02-13T03:00:24;5.90;89.20
7606;DHT22;3844;53.360;9.738;2023-02-13T03:02:44;5.90;89.10
7606;DHT22;3844;53.360;9.738;2023-02-13T03:05:08;5.90;89.10
7606;DHT22;3844;53.360;9.738;2023-02-13T03:07:34;5.90;89.10
7606;DHT22;3844;53.360;9.738;2023-02-13T03:09:40;5.90;89.10
7606;DHT22;3844;53.360;9.738;2023-02-13T03:12:01;5.90;89.10
7606;DHT22;3844;53.360;9.738;2023-02-13T03:14:24;5.80;89.10
7606;DHT22;3844;53.360;9.738;2023-02-13T03:16:25;5.80;89.10
7606;DHT22;3844;53.360;9.738;2023-02-13T03:18:49;5.80;89.10
7606;DHT22;3844;53.360;9.738;2023-02-13T03:21:17;5.80;89.10
7606;DHT22;3844;53.360;9.738;2023-02-13T03:26:04;5.80;89.10
7606;DHT22;3844;53.360;9.738;2023-02-13T03:38:02;5.80;89.10
7606;DHT22;3844;53.360;9.738;2023-02-13T03:40:11;5.80;89.10
7606;DHT22;3844;53.360;9.738;2023-02-13T03:46:44;5.80;89.20
7606;DHT22;3844;53.360;9.738;2023-02-13T03:48:46;5.80;89.20
7606;DHT22;3844;53.360;9.738;2023-02-13T03:51:07;5.80;89.10
7606;DHT22;3844;53.360;9.738;2023-02-13T03:53:10;5.80;89.10
7606;DHT22;3844;53.360;9.738;2023-02-13T03:55:19;5.70;89.20
7606;DHT22;3844;53.360;9.738;2023-02-13T03:57:43;5.70;89.20
7606;DHT22;3844;53.360;9.738;2023-02-13T04:00:06;5.70;89.20
7606;DHT22;3844;53.360;9.738;2023-02-13T04:02:14;5.70;89.10
7606;DHT22;3844;53.360;9.738;2023-02-13T04:06:46;5.70;89.00
7606;DHT22;3844;53.360;9.738;2023-02-13T04:08:48;5.70;89.00
7606;DHT22;3844;53.360;9.738;2023-02-13T04:10:57;5.70;89.10
7606;DHT22;3844;53.360;9.738;2023-02-13T04:15:30;5.70;89.00
7606;DHT22;3844;53.360;9.738;2023-02-13T04:17:38;5.70;89.10
7606;DHT22;3844;53.360;9.738;2023-02-13T04:19:40;5.70;89.20
7606;DHT22;3844;53.360;9.738;2023-02-13T04:23:41;5.70;89.00
7606;DHT22;3844;53.360;9.738;2023-02-13T04:25:45;5.70;89.10
7606;DHT22;3844;53.360;9.738;2023-02-13T04:27:48;5.70;89.10
7606;DHT22;3844;53.360;9.738;2023-02-13T04:29:48;5.70;89.10
7606;DHT22;3844;53.360;9.738;2023-02-13T04:33:50;5.70;89.10
7606;DHT22;3844;53.360;9.738;2023-02-13T04:37:52;5.60;89.10
7606;DHT22;3844;53.360;9.738;2023-02-13T04:39:52;5.60;89.10
7606;DHT22;3844;53.360;9.738;2023-02-13T04:41:53;5.60;89.10
7606;DHT22;3844;53.360;9.738;2023-02-13T04:43:54;5.60;89.10
7606;DHT22;3844;53.360;9.738;2023-02-13T04:45:54;5.60;89.10
7606;DHT22;3844;53.360;9.738;2023-02-13T04:47:56;5.60;89.10
7606;DHT22;3844;53.360;9.738;2023-02-13T04:49:57;5.60;89.10
7606;DHT22;3844;53.360;9.738;2023-02-13T04:51:57;5.60;89.00
7606;DHT22;3844;53.360;9.738;2023-02-13T04:53:58;5.60;89.10
7606;DHT22;3844;53.360;9.738;2023-02-13T04:55:59;5.60;89.10
7606;DHT22;3844;53.360;9.738;2023-02-13T04:57:59;5.60;89.10
7606;DHT22;3844;53.360;9.738;2023-02-13T05:00:00;5.60;89.10
7606;DHT22;3844;53.360;9.738;2023-02-13T05:02:01;5.60;89.10
7606;DHT22;3844;53.360;9.738;2023-02-13T05:04:01;5.60;89.10
7606;DHT22;3844;53.360;9.738;2023-02-13T05:06:02;5.60;89.10
7606;DHT22;3844;53.360;9.738;2023-02-13T05:08:04;5.60;89.20
7606;DHT22;3844;53.360;9.738;2023-02-13T05:10:05;5.60;89.20
7606;DHT22;3844;53.360;9.738;2023-02-13T05:12:06;5.60;89.10
7606;DHT22;3844;53.360;9.738;2023-02-13T05:14:08;5.60;89.10
7606;DHT22;3844;53.360;9.738;2023-02-13T05:16:09;5.60;89.10
7606;DHT22;3844;53.360;9.738;2023-02-13T05:18:10;5.60;89.10
7606;DHT22;3844;53.360;9.738;2023-02-13T05:20:12;5.60;89.00
7606;DHT22;3844;53.360;9.738;2023-02-13T05:22:12;5.60;89.10
7606;DHT22;3844;53.360;9.738;2023-02-13T05:24:33;5.60;89.00
7606;DHT22;3844;53.360;9.738;2023-02-13T05:26:34;5.60;89.00
7606;DHT22;3844;53.360;9.738;2023-02-13T05:28:34;5.60;89.00
7606;DHT22;3844;53.360;9.738;2023-02-13T05:30:54;5.60;89.10
7606;DHT22;3844;53.360;9.738;2023-02-13T05:32:54;5.50;89.10
7606;DHT22;3844;53.360;9.738;2023-02-13T05:34:55;5.50;89.20
7606;DHT22;3844;53.360;9.738;2023-02-13T05:36:56;5.50;89.00
7606;DHT22;3844;53.360;9.738;2023-02-13T05:38:56;5.50;89.10
7606;DHT22;3844;53.360;9.738;2023-02-13T05:40:59;5.50;89.10
7606;DHT22;3844;53.360;9.738;2023-02-13T05:43:00;5.50;89.10
7606;DHT22;3844;53.360;9.738;2023-02-13T05:45:00;5.50;89.00
7606;DHT22;3844;53.360;9.738;2023-02-13T05:47:01;5.50;89.00
7606;DHT22;3844;53.360;9.738;2023-02-13T05:49:02;5.50;89.10
7606;DHT22;3844;53.360;9.738;2023-02-13T05:53:03;5.50;89.10
7606;DHT22;3844;53.360;9.738;2023-02-13T05:55:04;5.50;89.10
7606;DHT22;3844;53.360;9.738;2023-02-13T05:57:05;5.50;89.10
7606;DHT22;3844;53.360;9.738;2023-02-13T05:59:06;5.50;89.00
7606;DHT22;3844;53.360;9.738;2023-02-13T06:01:06;5.50;89.10
7606;DHT22;3844;53.360;9.738;2023-02-13T06:05:08;5.50;89.10
7606;DHT22;3844;53.360;9.738;2023-02-13T06:07:09;5.50;89.10
7606;DHT22;3844;53.360;9.738;2023-02-13T06:09:10;5.50;89.10
7606;DHT22;3844;53.360;9.738;2023-02-13T06:11:10;5.50;89.10
7606;DHT22;3844;53.360;9.738;2023-02-13T06:13:11;5.50;89.10
7606;DHT22;3844;53.360;9.738;2023-02-13T06:15:12;5.50;89.00
7606;DHT22;3844;53.360;9.738;2023-02-13T06:17:12;5.50;89.10
7606;DHT22;3844;53.360;9.738;2023-02-13T06:19:13;5.50;89.10
7606;DHT22;3844;53.360;9.738;2023-02-13T06:21:14;5.50;89.10
7606;DHT22;3844;53.360;9.738;2023-02-13T06:23:14;5.40;89.10
7606;DHT22;3844;53.360;9.738;2023-02-13T06:25:15;5.40;89.00
7606;DHT22;3844;53.360;9.738;2023-02-13T06:27:16;5.40;89.10
7606;DHT22;3844;53.360;9.738;2023-02-13T06:29:17;5.40;89.10
7606;DHT22;3844;53.360;9.738;2023-02-13T06:31:17;5.40;89.00
7606;DHT22;3844;53.360;9.738;2023-02-13T06:33:18;5.40;89.00
7606;DHT22;3844;53.360;9.738;2023-02-13T06:35:19;5.40;88.90
7606;DHT22;3844;53.360;9.738;2023-02-13T06:37:19;5.50;88.90
7606;DHT22;3844;53.360;9.738;2023-02-13T06:39:20;5.50;89.00
7606;DHT22;3844;53.360;9.738;2023-02-13T06:43:22;5.40;89.00
7606;DHT22;3844;53.360;9.738;2023-02-13T06:45:22;5.40;89.00
7606;DHT22;3844;53.360;9.738;2023-02-13T06:47:23;5.40;89.00
7606;DHT22;3844;53.360;9.738;2023-02-13T06:49:24;5.40;89.00
7606;DHT22;3844;53.360;9.738;2023-02-13T06:51:25;5.40;89.00
7606;DHT22;3844;53.360;9.738;2023-02-13T06:53:25;5.40;89.00
7606;DHT22;3844;53.360;9.738;2023-02-13T06:55:26;5.40;88.90
7606;DHT22;3844;53.360;9.738;2023-02-13T06:57:27;5.40;89.00
7606;DHT22;3844;53.360;9.738;2023-02-13T06:59:32;5.50;88.90
7606;DHT22;3844;53.360;9.738;2023-02-13T07:01:32;5.40;88.90
7606;DHT22;3844;53.360;9.738;2023-02-13T07:03:33;5.50;88.90
7606;DHT22;3844;53.360;9.738;2023-02-13T07:05:34;5.50;88.80
7606;DHT22;3844;53.360;9.738;2023-02-13T07:07:36;5.50;88.90
7606;DHT22;3844;53.360;9.738;2023-02-13T07:09:37;5.50;88.80
7606;DHT22;3844;53.360;9.738;2023-02-13T07:11:38;5.50;88.80
7606;DHT22;3844;53.360;9.738;2023-02-13T07:13:41;5.50;88.90
7606;DHT22;3844;53.360;9.738;2023-02-13T07:15:42;5.50;88.80
7606;DHT22;3844;53.360;9.738;2023-02-13T07:17:43;5.50;88.90
7606;DHT22;3844;53.360;9.738;2023-02-13T07:19:43;5.60;88.90
7606;DHT22;3844;53.360;9.738;2023-02-13T07:21:44;5.60;88.80
7606;DHT22;3844;53.360;9.738;2023-02-13T07:23:45;5.60;88.80
7606;DHT22;3844;53.360;9.738;2023-02-13T07:25:45;5.60;88.80
7606;DHT22;3844;53.360;9.738;2023-02-13T07:27:46;5.60;88.80
7606;DHT22;3844;53.360;9.738;2023-02-13T07:31:48;5.60;88.70
7606;DHT22;3844;53.360;9.738;2023-02-13T07:33:48;5.70;88.70
7606;DHT22;3844;53.360;9.738;2023-02-13T07:35:50;5.70;88.60
7606;DHT22;3844;53.360;9.738;2023-02-13T07:37:54;5.70;88.60
7606;DHT22;3844;53.360;9.738;2023-02-13T07:39:55;5.70;88.60
7606;DHT22;3844;53.360;9.738;2023-02-13T07:41:56;5.70;88.50
7606;DHT22;3844;53.360;9.738;2023-02-13T07:43:56;5.70;88.60
7606;DHT22;3844;53.360;9.738;2023-02-13T07:45:58;5.70;88.50
7606;DHT22;3844;53.360;9.738;2023-02-13T07:50:03;5.80;88.50
7606;DHT22;3844;53.360;9.738;2023-02-13T07:52:07;5.80;88.50
7606;DHT22;3844;53.360;9.738;2023-02-13T07:54:07;5.80;88.60
7606;DHT22;3844;53.360;9.738;2023-02-13T07:56:09;5.80;88.50
7606;DHT22;3844;53.360;9.738;2023-02-13T07:58:10;5.90;88.40
7606;DHT22;3844;53.360;9.738;2023-02-13T08:00:11;5.90;88.40
7606;DHT22;3844;53.360;9.738;2023-02-13T08:02:14;5.90;88.40
7606;DHT22;3844;53.360;9.738;2023-02-13T08:04:15;5.90;88.40
7606;DHT22;3844;53.360;9.738;2023-02-13T08:06:16;6.00;88.40
7606;DHT22;3844;53.360;9.738;2023-02-13T08:08:17;6.00;88.40
7606;DHT22;3844;53.360;9.738;2023-02-13T08:10:18;6.00;88.50
7606;DHT22;3844;53.360;9.738;2023-02-13T08:12:37;6.00;88.50
7606;DHT22;3844;53.360;9.738;2023-02-13T08:14:38;6.00;88.50
7606;DHT22;3844;53.360;9.738;2023-02-13T08:18:40;6.10;88.40
7606;DHT22;3844;53.360;9.738;2023-02-13T08:20:40;6.10;88.30
7606;DHT22;3844;53.360;9.738;2023-02-13T08:22:41;6.20;88.20
7606;DHT22;3844;53.360;9.738;2023-02-13T08:24:42;6.20;88.20
7606;DHT22;3844;53.360;9.738;2023-02-13T08:26:42;6.20;88.20
7606;DHT22;3844;53.360;9.738;2023-02-13T08:28:43;6.30;88.20
7606;DHT22;3844;53.360;9.738;2023-02-13T08:30:44;6.30;88.20
7606;DHT22;3844;53.360;9.738;2023-02-13T08:32:44;6.30;88.30
7606;DHT22;3844;53.360;9.738;2023-02-13T08:34:45;6.30;88.40
7606;DHT22;3844;53.360;9.738;2023-02-13T08:38:47;6.40;88.20
7606;DHT22;3844;53.360;9.738;2023-02-13T08:40:47;6.40;88.10
7606;DHT22;3844;53.360;9.738;2023-02-13T08:42:48;6.50;88.10
7606;DHT22;3844;53.360;9.738;2023-02-13T08:44:49;6.50;88.20
7606;DHT22;3844;53.360;9.738;2023-02-13T08:46:50;6.50;88.00
7606;DHT22;3844;53.360;9.738;2023-02-13T08:48:50;6.60;88.00
7606;DHT22;3844;53.360;9.738;2023-02-13T08:50:51;6.60;88.00
7606;DHT22;3844;53.360;9.738;2023-02-13T08:52:52;6.70;88.00
7606;DHT22;3844;53.360;9.738;2023-02-13T08:54:53;6.70;88.00
7606;DHT22;3844;53.360;9.738;2023-02-13T08:56:54;6.70;88.10
7606;DHT22;3844;53.360;9.738;2023-02-13T08:58:55;6.80;88.10
7606;DHT22;3844;53.360;9.738;2023-02-13T09:00:56;6.80;88.00
7606;DHT22;3844;53.360;9.738;2023-02-13T09:03:01;6.80;88.00
7606;DHT22;3844;53.360;9.738;2023-02-13T09:05:02;6.90;88.10
7606;DHT22;3844;53.360;9.738;2023-02-13T09:07:03;6.90;88.20
7606;DHT22;3844;53.360;9.738;2023-02-13T09:09:04;6.90;88.20
7606;DHT22;3844;53.360;9.738;2023-02-13T09:11:05;7.00;88.10
7606;DHT22;3844;53.360;9.738;2023-02-13T09:13:06;7.00;88.10
7606;DHT22;3844;53.360;9.738;2023-02-13T09:15:07;7.00;88.10
7606;DHT22;3844;53.360;9.738;2023-02-13T09:17:09;7.00;88.10
7606;DHT22;3844;53.360;9.738;2023-02-13T09:19:09;7.10;88.20
7606;DHT22;3844;53.360;9.738;2023-02-13T09:21:11;7.10;88.40
7606;DHT22;3844;53.360;9.738;2023-02-13T09:23:13;7.10;88.60
7606;DHT22;3844;53.360;9.738;2023-02-13T09:25:17;7.10;88.70
7606;DHT22;3844;53.360;9.738;2023-02-13T09:27:19;7.10;88.60
7606;DHT22;3844;53.360;9.738;2023-02-13T09:29:20;7.20;88.50
7606;DHT22;3844;53.360;9.738;2023-02-13T09:31:20;7.20;88.40
7606;DHT22;3844;53.360;9.738;2023-02-13T09:33:24;7.20;88.80
7606;DHT22;3844;53.360;9.738;2023-02-13T09:35:25;7.20;88.90
7606;DHT22;3844;53.360;9.738;2023-02-13T09:37:26;7.30;88.80
7606;DHT22;3844;53.360;9.738;2023-02-13T09:39:27;7.30;88.90
7606;DHT22;3844;53.360;9.738;2023-02-13T09:41:37;7.30;88.80
7606;DHT22;3844;53.360;9.738;2023-02-13T09:43:56;7.30;89.00
7606;DHT22;3844;53.360;9.738;2023-02-13T09:46:15;7.40;89.00
7606;DHT22;3844;53.360;9.738;2023-02-13T09:48:29;7.40;89.20
7606;DHT22;3844;53.360;9.738;2023-02-13T09:50:30;7.40;89.50
7606;DHT22;3844;53.360;9.738;2023-02-13T09:52:34;7.40;90.30
7606;DHT22;3844;53.360;9.738;2023-02-13T09:54:35;7.30;90.50
7606;DHT22;3844;53.360;9.738;2023-02-13T10:01:47;7.40;89.80
7606;DHT22;3844;53.360;9.738;2023-02-13T10:03:50;7.40;89.30
7606;DHT22;3844;53.360;9.738;2023-02-13T10:06:03;7.50;89.00
7606;DHT22;3844;53.360;9.738;2023-02-13T10:08:08;7.60;89.70
7606;DHT22;3844;53.360;9.738;2023-02-13T10:15:19;7.60;90.40
7606;DHT22;3844;53.360;9.738;2023-02-13T10:17:37;7.60;91.50
7606;DHT22;3844;53.360;9.738;2023-02-13T10:19:52;7.60;90.90
7606;DHT22;3844;53.360;9.738;2023-02-13T10:24:43;7.70;91.40
7606;DHT22;3844;53.360;9.738;2023-02-13T10:26:39;7.70;92.20
7606;DHT22;3844;53.360;9.738;2023-02-13T10:28:56;7.70;92.90
7606;DHT22;3844;53.360;9.738;2023-02-13T10:31:18;7.70;93.40
7606;DHT22;3844;53.360;9.738;2023-02-13T10:33:24;7.80;93.00
7606;DHT22;3844;53.360;9.738;2023-02-13T10:35:29;7.80;93.00
7606;DHT22;3844;53.360;9.738;2023-02-13T10:37:30;7.90;92.50
7606;DHT22;3844;53.360;9.738;2023-02-13T10:39:31;7.90;93.10
7606;DHT22;3844;53.360;9.738;2023-02-13T10:41:49;8.00;93.40
7606;DHT22;3844;53.360;9.738;2023-02-13T10:46:19;8.10;94.00
7606;DHT22;3844;53.360;9.738;2023-02-13T10:53:23;8.30;95.50
7606;DHT22;3844;53.360;9.738;2023-02-13T10:58:15;8.30;95.70
7606;DHT22;3844;53.360;9.738;2023-02-13T11:02:54;8.50;95.70
7606;DHT22;3844;53.360;9.738;2023-02-13T11:04:59;8.50;95.70
7606;DHT22;3844;53.360;9.738;2023-02-13T11:07:03;8.60;95.70
7606;DHT22;3844;53.360;9.738;2023-02-13T11:09:11;8.60;95.70
7606;DHT22;3844;53.360;9.738;2023-02-13T11:11:36;8.50;95.70
7606;DHT22;3844;53.360;9.738;2023-02-13T11:13:37;8.50;95.70
7606;DHT22;3844;53.360;9.738;2023-02-13T11:15:39;8.40;95.70
7606;DHT22;3844;53.360;9.738;2023-02-13T11:17:40;8.40;95.70
7606;DHT22;3844;53.360;9.738;2023-02-13T11:19:53;8.50;95.70
7606;DHT22;3844;53.360;9.738;2023-02-13T11:22:16;8.50;95.70
7606;DHT22;3844;53.360;9.738;2023-02-13T11:24:25;8.40;95.70
7606;DHT22;3844;53.360;9.738;2023-02-13T11:26:38;8.40;95.70
7606;DHT22;3844;53.360;9.738;2023-02-13T11:28:57;8.40;95.70
7606;DHT22;3844;53.360;9.738;2023-02-13T11:31:28;8.30;95.70
7606;DHT22;3844;53.360;9.738;2023-02-13T11:33:29;8.40;95.70
7606;DHT22;3844;53.360;9.738;2023-02-13T11:35:34;8.40;95.70
7606;DHT22;3844;53.360;9.738;2023-02-13T11:37:35;8.50;95.70
7606;DHT22;3844;53.360;9.738;2023-02-13T11:39:36;8.50;95.70
7606;DHT22;3844;53.360;9.738;2023-02-13T11:41:42;8.50;95.70
7606;DHT22;3844;53.360;9.738;2023-02-13T11:43:47;8.50;95.70
7606;DHT22;3844;53.360;9.738;2023-02-13T11:46:04;8.50;95.70
7606;DHT22;3844;53.360;9.738;2023-02-13T11:48:19;8.50;95.70
7606;DHT22;3844;53.360;9.738;2023-02-13T11:50:22;8.40;95.70
7606;DHT22;3844;53.360;9.738;2023-02-13T11:52:27;8.40;95.70
7606;DHT22;3844;53.360;9.738;2023-02-13T11:54:42;8.40;95.70
7606;DHT22;3844;53.360;9.738;2023-02-13T11:56:51;8.40;95.70
7606;DHT22;3844;53.360;9.738;2023-02-13T11:59:01;8.30;95.70
7606;DHT22;3844;53.360;9.738;2023-02-13T12:03:28;8.30;95.70
7606;DHT22;3844;53.360;9.738;2023-02-13T12:05:29;8.30;95.70
7606;DHT22;3844;53.360;9.738;2023-02-13T12:07:30;8.40;95.70
7606;DHT22;3844;53.360;9.738;2023-02-13T12:09:33;8.40;95.70
7606;DHT22;3844;53.360;9.738;2023-02-13T12:11:41;8.50;95.70
7606;DHT22;3844;53.360;9.738;2023-02-13T12:13:46;8.60;95.70
7606;DHT22;3844;53.360;9.738;2023-02-13T12:15:56;8.70;95.70
7606;DHT22;3844;53.360;9.738;2023-02-13T12:20:14;8.70;95.70
7606;DHT22;3844;53.360;9.738;2023-02-13T12:23:14;8.70;95.70
7606;DHT22;3844;53.360;9.738;2023-02-13T12:29:31;8.60;95.70
7606;DHT22;3844;53.360;9.738;2023-02-13T12:39:01;8.50;95.70
7606;DHT22;3844;53.360;9.738;2023-02-13T12:41:32;8.60;95.70
7606;DHT22;3844;53.360;9.738;2023-02-13T12:45:59;8.60;95.70
7606;DHT22;3844;53.360;9.738;2023-02-13T12:50:45;8.60;95.70
7606;DHT22;3844;53.360;9.738;2023-02-13T12:54:48;8.60;95.70
7606;DHT22;3844;53.360;9.738;2023-02-13T13:04:22;8.60;95.70
7606;DHT22;3844;53.360;9.738;2023-02-13T13:12:25;8.60;95.70
7606;DHT22;3844;53.360;9.738;2023-02-13T13:18:48;8.70;95.70
7606;DHT22;3844;53.360;9.738;2023-02-13T13:27:46;8.70;95.70
7606;DHT22;3844;53.360;9.738;2023-02-13T13:30:00;8.80;95.70
7606;DHT22;3844;53.360;9.738;2023-02-13T13:32:05;8.80;95.70
7606;DHT22;3844;53.360;9.738;2023-02-13T13:34:14;8.80;95.70
7606;DHT22;3844;53.360;9.738;2023-02-13T13:41:21;8.90;95.70
7606;DHT22;3844;53.360;9.738;2023-02-13T13:48:13;8.90;95.70
7606;DHT22;3844;53.360;9.738;2023-02-13T13:50:22;8.90;95.70
7606;DHT22;3844;53.360;9.738;2023-02-13T13:54:33;8.90;95.70
7606;DHT22;3844;53.360;9.738;2023-02-13T13:59:01;8.90;95.70
7606;DHT22;3844;53.360;9.738;2023-02-13T14:03:30;8.90;95.70
7606;DHT22;3844;53.360;9.738;2023-02-13T14:05:58;8.80;95.70
7606;DHT22;3844;53.360;9.738;2023-02-13T14:08:02;8.90;95.70
7606;DHT22;3844;53.360;9.738;2023-02-13T14:10:19;8.90;95.70
7606;DHT22;3844;53.360;9.738;2023-02-13T14:18:44;8.90;95.70
7606;DHT22;3844;53.360;9.738;2023-02-13T14:22:50;8.90;95.70
7606;DHT22;3844;53.360;9.738;2023-02-13T14:24:55;8.90;95.70
7606;DHT22;3844;53.360;9.738;2023-02-13T14:26:56;8.90;95.70
7606;DHT22;3844;53.360;9.738;2023-02-13T14:28:59;8.90;95.70
7606;DHT22;3844;53.360;9.738;2023-02-13T14:31:08;8.90;95.70
7606;DHT22;3844;53.360;9.738;2023-02-13T14:33:27;8.80;95.70
7606;DHT22;3844;53.360;9.738;2023-02-13T14:35:34;8.80;95.70
7606;DHT22;3844;53.360;9.738;2023-02-13T14:42:25;8.80;95.70
7606;DHT22;3844;53.360;9.738;2023-02-13T14:44:50;8.70;95.70
7606;DHT22;3844;53.360;9.738;2023-02-13T14:46:53;8.70;95.70
7606;DHT22;3844;53.360;9.738;2023-02-13T14:50:56;8.60;95.70
7606;DHT22;3844;53.360;9.738;2023-02-13T14:53:08;8.50;95.70
7606;DHT22;3844;53.360;9.738;2023-02-13T14:55:41;8.40;95.70
7606;DHT22;3844;53.360;9.738;2023-02-13T14:57:50;8.30;95.70
7606;DHT22;3844;53.360;9.738;2023-02-13T14:59:55;8.30;95.70
7606;DHT22;3844;53.360;9.738;2023-02-13T15:02:01;8.30;95.70
7606;DHT22;3844;53.360;9.738;2023-02-13T15:04:14;8.30;95.70
7606;DHT22;3844;53.360;9.738;2023-02-13T15:06:27;8.40;95.70
7606;DHT22;3844;53.360;9.738;2023-02-13T15:08:35;8.40;95.70
7606;DHT22;3844;53.360;9.738;2023-02-13T15:10:47;8.40;95.70
7606;DHT22;3844;53.360;9.738;2023-02-13T15:12:57;8.40;95.70
7606;DHT22;3844;53.360;9.738;2023-02-13T15:15:00;8.40;95.70
7606;DHT22;3844;53.360;9.738;2023-02-13T15:17:07;8.30;95.70
7606;DHT22;3844;53.360;9.738;2023-02-13T15:19:17;8.30;95.70
7606;DHT22;3844;53.360;9.738;2023-02-13T15:21:21;8.30;95.70
7606;DHT22;3844;53.360;9.738;2023-02-13T15:23:33;8.20;95.70
7606;DHT22;3844;53.360;9.738;2023-02-13T15:25:39;8.20;95.70
7606;DHT22;3844;53.360;9.738;2023-02-13T15:27:42;8.20;95.70
7606;DHT22;3844;53.360;9.738;2023-02-13T15:32:29;8.00;95.70
7606;DHT22;3844;53.360;9.738;2023-02-13T15:34:31;7.90;95.70
7606;DHT22;3844;53.360;9.738;2023-02-13T15:36:39;7.90;95.70
7606;DHT22;3844;53.360;9.738;2023-02-13T15:38:40;7.90;95.70
7606;DHT22;3844;53.360;9.738;2023-02-13T15:40:43;7.80;95.70
7606;DHT22;3844;53.360;9.738;2023-02-13T15:42:45;7.80;95.70
7606;DHT22;3844;53.360;9.738;2023-02-13T15:44:51;7.80;95.70
7606;DHT22;3844;53.360;9.738;2023-02-13T15:47:02;7.80;95.70
7606;DHT22;3844;53.360;9.738;2023-02-13T15:49:15;7.70;95.70
7606;DHT22;3844;53.360;9.738;2023-02-13T15:51:23;7.70;95.70
7606;DHT22;3844;53.360;9.738;2023-02-13T15:53:27;7.60;95.70
7606;DHT22;3844;53.360;9.738;2023-02-13T15:55:32;7.50;95.70
7606;DHT22;3844;53.360;9.738;2023-02-13T15:57:33;7.50;95.70
7606;DHT22;3844;53.360;9.738;2023-02-13T15:59:37;7.40;95.70
7606;DHT22;3844;53.360;9.738;2023-02-13T16:01:41;7.40;95.70
7606;DHT22;3844;53.360;9.738;2023-02-13T16:03:48;7.30;95.70
7606;DHT22;3844;53.360;9.738;2023-02-13T16:05:50;7.30;95.70
7606;DHT22;3844;53.360;9.738;2023-02-13T16:07:53;7.30;95.70
7606;DHT22;3844;53.360;9.738;2023-02-13T16:10:14;7.20;95.70
7606;DHT22;3844;53.360;9.738;2023-02-13T16:12:24;7.20;95.70
7606;DHT22;3844;53.360;9.738;2023-02-13T16:14:27;7.10;95.70
7606;DHT22;3844;53.360;9.738;2023-02-13T16:16:30;7.10;95.70
7606;DHT22;3844;53.360;9.738;2023-02-13T16:18:34;7.10;95.70
7606;DHT22;3844;53.360;9.738;2023-02-13T16:20:36;7.10;95.70
7606;DHT22;3844;53.360;9.738;2023-02-13T16:22:38;7.10;95.70
7606;DHT22;3844;53.360;9.738;2023-02-13T16:24:52;7.10;95.70
7606;DHT22;3844;53.360;9.738;2023-02-13T16:26:55;7.10;95.70
7606;DHT22;3844;53.360;9.738;2023-02-13T16:28:56;7.10;95.70
7606;DHT22;3844;53.360;9.738;2023-02-13T16:30:58;7.10;95.70
7606;DHT22;3844;53.360;9.738;2023-02-13T16:37:32;7.00;95.70
7606;DHT22;3844;53.360;9.738;2023-02-13T16:39:33;6.90;95.70
7606;DHT22;3844;53.360;9.738;2023-02-13T16:45:45;6.90;95.70
7606;DHT22;3844;53.360;9.738;2023-02-13T16:47:47;6.90;95.70
7606;DHT22;3844;53.360;9.738;2023-02-13T16:49:53;6.90;95.70
7606;DHT22;3844;53.360;9.738;2023-02-13T16:52:10;6.80;95.70
7606;DHT22;3844;53.360;9.738;2023-02-13T16:56:40;6.90;95.70
7606;DHT22;3844;53.360;9.738;2023-02-13T16:58:41;6.80;95.70
7606;DHT22;3844;53.360;9.738;2023-02-13T17:00:49;6.90;95.70